Time,TemperatureF,DewpointF,PressureIn,WindDirection,WindDirectionDegrees,WindSpeedMPH,WindSpeedGustMPH,Humidity,HourlyPrecipIn,Conditions,Clouds,dailyrainin,SoftwareType,DateUTC
2013-04-27 00:12:00,42.0,28.0,-100.00,WNW,285,1.0,8.0,56,-99.99,,,-99.99,,2013-04-27 06:12:00,
2013-04-27 00:22:00,42.0,28.0,-100.00,WNW,285,1.0,8.0,56,-99.99,,,-99.99,,2013-04-27 06:22:00,
2013-04-27 01:01:00,43.0,29.0,-100.00,WSW,240,12.0,15.0,59,-99.99,,,0.00,,2013-04-27 07:01:00,
2013-04-27 01:11:00,42.0,28.0,-100.00,SSW,210,8.0,11.0,57,-99.99,,,0.00,,2013-04-27 07:11:00,
2013-04-27 01:21:00,42.0,28.0,-100.00,SSW,210,8.0,11.0,57,-99.99,,,0.00,,2013-04-27 07:21:00,
2013-04-27 01:31:00,43.0,29.0,-100.00,WSW,240,12.0,15.0,59,-99.99,,,0.00,,2013-04-27 07:31:00,
2013-04-27 01:42:00,43.0,29.0,-100.00,WSW,240,12.0,15.0,59,-99.99,,,0.00,,2013-04-27 07:42:00,
2013-04-27 01:52:00,43.0,29.0,-100.00,WSW,240,12.0,15.0,59,-99.99,,,0.00,,2013-04-27 07:52:00,
2013-04-27 02:11:00,41.0,29.0,-100.00,WSW,250,11.0,13.0,61,-99.99,,,0.00,,2013-04-27 08:11:00,
2013-04-27 02:21:00,41.0,29.0,-100.00,WSW,250,11.0,13.0,61,-99.99,,,0.00,,2013-04-27 08:21:00,
2013-04-27 02:33:00,43.0,29.0,-100.00,West,270,9.0,11.0,58,-99.99,,,0.00,,2013-04-27 08:33:00,
2013-04-27 02:42:00,43.0,29.0,-100.00,West,270,9.0,11.0,58,-99.99,,,0.00,,2013-04-27 08:42:00,
2013-04-27 02:51:00,43.0,29.0,-100.00,West,270,9.0,11.0,58,-99.99,,,0.00,,2013-04-27 08:51:00,
2013-04-27 03:01:00,43.0,29.0,-100.00,West,270,9.0,11.0,58,-99.99,,,0.00,,2013-04-27 09:01:00,
2013-04-27 03:11:00,43.0,29.0,-100.00,West,260,9.0,11.0,56,-99.99,,,0.00,,2013-04-27 09:11:00,
2013-04-27 03:21:00,43.0,29.0,-100.00,West,260,9.0,11.0,56,-99.99,,,0.00,,2013-04-27 09:21:00,
2013-04-27 03:33:00,42.0,29.0,-100.00,WSW,250,7.0,11.0,59,-99.99,,,0.00,,2013-04-27 09:33:00,
2013-04-27 03:42:00,42.0,29.0,-100.00,WSW,250,7.0,11.0,59,-99.99,,,0.00,,2013-04-27 09:42:00,
2013-04-27 03:53:00,42.0,29.0,-100.00,WSW,250,7.0,11.0,59,-99.99,,,0.00,,2013-04-27 09:53:00,
2013-04-27 04:01:00,39.0,28.0,-100.00,SW,235,0.0,2.0,64,-99.99,,,0.00,,2013-04-27 10:01:00,
2013-04-27 04:12:00,39.0,29.0,-100.00,NW,310,4.0,7.0,66,-99.99,,,0.00,,2013-04-27 10:12:00,
2013-04-27 04:22:00,39.0,29.0,-100.00,NW,310,4.0,7.0,66,-99.99,,,0.00,,2013-04-27 10:22:00,
2013-04-27 04:32:00,39.0,28.0,-100.00,SW,235,0.0,2.0,64,-99.99,,,0.00,,2013-04-27 10:32:00,
2013-04-27 04:42:00,39.0,28.0,-100.00,SW,235,0.0,2.0,64,-99.99,,,0.00,,2013-04-27 10:42:00,
2013-04-27 04:52:00,39.0,28.0,-100.00,SW,235,0.0,2.0,64,-99.99,,,0.00,,2013-04-27 10:52:00,
2013-04-27 05:01:00,38.0,29.0,-100.00,West,275,0.0,1.0,70,-99.99,,,0.00,,2013-04-27 11:01:00,
2013-04-27 05:11:00,38.0,29.0,-100.00,ENE,70,1.0,3.0,69,-99.99,,,0.00,,2013-04-27 11:11:00,
2013-04-27 05:22:00,38.0,29.0,-100.00,ENE,70,1.0,3.0,69,-99.99,,,0.00,,2013-04-27 11:22:00,
2013-04-27 05:31:00,38.0,29.0,-100.00,West,275,0.0,1.0,70,-99.99,,,0.00,,2013-04-27 11:31:00,
2013-04-27 05:41:00,38.0,29.0,-100.00,West,275,0.0,1.0,70,-99.99,,,0.00,,2013-04-27 11:41:00,
2013-04-27 05:52:00,38.0,29.0,-100.00,West,275,0.0,1.0,70,-99.99,,,0.00,,2013-04-27 11:52:00,
2013-04-27 06:11:00,40.0,30.0,-100.00,SW,225,8.0,12.0,66,-99.99,,,0.00,,2013-04-27 12:11:00,
2013-04-27 06:21:00,40.0,30.0,-100.00,SW,225,8.0,12.0,66,-99.99,,,0.00,,2013-04-27 12:21:00,
2013-04-27 06:32:00,40.0,29.0,-100.00,West,280,2.0,5.0,65,-99.99,,,0.00,,2013-04-27 12:32:00,
2013-04-27 06:42:00,40.0,29.0,-100.00,West,280,2.0,5.0,65,-99.99,,,0.00,,2013-04-27 12:42:00,
2013-04-27 06:52:00,43.0,29.0,-100.00,WSW,250,6.0,9.0,58,-99.99,,,0.00,,2013-04-27 12:52:00,
2013-04-27 07:01:00,43.0,29.0,-100.00,WSW,250,6.0,9.0,58,-99.99,,,0.00,,2013-04-27 13:01:00,
2013-04-27 07:11:00,41.0,29.0,-100.00,WSW,250,9.0,11.0,64,-99.99,,,-99.99,,2013-04-27 13:11:00,
2013-04-27 07:21:00,41.0,29.0,-100.00,WSW,250,9.0,11.0,64,-99.99,,,-99.99,,2013-04-27 13:21:00,
2013-04-27 07:32:00,39.0,29.0,-100.00,SW,230,11.0,12.0,67,-99.99,,,0.00,,2013-04-27 13:32:00,
2013-04-27 07:41:00,39.0,29.0,-100.00,SW,230,11.0,12.0,67,-99.99,,,0.00,,2013-04-27 13:41:00,
2013-04-27 07:52:00,41.0,29.0,-100.00,SW,235,14.0,16.0,63,-99.99,,,0.00,,2013-04-27 13:52:00,
2013-04-27 08:02:00,41.0,29.0,-100.00,SW,235,14.0,16.0,63,-99.99,,,0.00,,2013-04-27 14:02:00,
2013-04-27 08:11:00,41.0,29.0,-100.00,SW,235,12.0,14.0,64,-99.99,,,0.00,,2013-04-27 14:11:00,
2013-04-27 08:21:00,41.0,29.0,-100.00,SW,235,12.0,14.0,64,-99.99,,,0.00,,2013-04-27 14:21:00,
2013-04-27 08:31:00,42.0,29.0,-100.00,SW,235,12.0,16.0,59,-99.99,,,0.00,,2013-04-27 14:31:00,
2013-04-27 08:41:00,42.0,29.0,-100.00,SW,235,12.0,16.0,59,-99.99,,,0.00,,2013-04-27 14:41:00,
2013-04-27 08:52:00,42.0,29.0,-100.00,SW,230,11.0,15.0,59,-99.99,,,0.00,,2013-04-27 14:52:00,
2013-04-27 09:00:00,45.0,27.0,-100.00,SW,230,12.0,15.0,49,-99.99,,,0.00,,2013-04-27 15:00:00,
2013-04-27 09:01:00,42.0,29.0,-100.00,SW,230,11.0,15.0,59,-99.99,,,0.00,,2013-04-27 15:01:00,
2013-04-27 09:11:00,44.0,27.0,-100.00,SW,230,13.0,16.0,51,-99.99,,,0.00,,2013-04-27 15:11:00,
2013-04-27 09:21:00,44.0,27.0,-100.00,SW,230,13.0,16.0,51,-99.99,,,0.00,,2013-04-27 15:21:00,
2013-04-27 09:33:00,45.0,27.0,-100.00,SW,230,12.0,15.0,49,-99.99,,,0.00,,2013-04-27 15:33:00,
2013-04-27 09:42:00,45.0,27.0,-100.00,SW,230,12.0,15.0,49,-99.99,,,0.00,,2013-04-27 15:42:00,
2013-04-27 09:52:00,45.0,27.0,-100.00,SW,230,12.0,15.0,49,-99.99,,,0.00,,2013-04-27 15:52:00,
2013-04-27 10:13:00,45.0,25.0,-100.00,SW,230,10.0,17.0,44,-99.99,,,0.00,,2013-04-27 16:13:00,
2013-04-27 10:22:00,45.0,25.0,-100.00,SW,230,10.0,17.0,44,-99.99,,,0.00,,2013-04-27 16:22:00,
2013-04-27 10:32:00,47.0,22.0,-100.00,WSW,250,19.0,24.0,37,-99.99,,,0.00,,2013-04-27 16:32:00,
2013-04-27 10:42:00,47.0,22.0,-100.00,WSW,250,19.0,24.0,37,-99.99,,,0.00,,2013-04-27 16:42:00,
2013-04-27 10:52:00,47.0,22.0,-100.00,WSW,250,19.0,24.0,37,-99.99,,,0.00,,2013-04-27 16:52:00,
2013-04-27 11:02:00,47.0,22.0,-100.00,WSW,250,19.0,24.0,37,-99.99,,,0.00,,2013-04-27 17:02:00,
2013-04-27 11:11:00,46.0,24.0,-100.00,WSW,245,14.0,26.0,41,-99.99,,,0.00,,2013-04-27 17:11:00,
2013-04-27 11:22:00,46.0,24.0,-100.00,WSW,245,14.0,26.0,41,-99.99,,,0.00,,2013-04-27 17:22:00,
2013-04-27 11:31:00,47.0,24.0,-100.00,SW,230,15.0,23.0,40,-99.99,,,0.00,,2013-04-27 17:31:00,
2013-04-27 11:52:00,47.0,24.0,-100.00,SW,230,15.0,23.0,40,-99.99,,,0.00,,2013-04-27 17:52:00,
2013-04-27 12:11:00,48.0,24.0,-100.00,WSW,240,16.0,22.0,38,-99.99,,,0.00,,2013-04-27 18:11:00,
2013-04-27 12:22:00,48.0,24.0,-100.00,WSW,240,16.0,22.0,38,-99.99,,,0.00,,2013-04-27 18:22:00,
2013-04-27 12:32:00,49.0,24.0,-100.00,SW,230,16.0,27.0,37,-99.99,,,0.00,,2013-04-27 18:32:00,
2013-04-27 12:51:00,49.0,24.0,-100.00,SW,230,16.0,27.0,37,-99.99,,,0.00,,2013-04-27 18:51:00,
2013-04-27 13:11:00,48.0,22.0,-100.00,SW,235,19.0,26.0,36,-99.99,,,0.00,,2013-04-27 19:11:00,
2013-04-27 13:21:00,48.0,22.0,-100.00,SW,235,19.0,26.0,36,-99.99,,,0.00,,2013-04-27 19:21:00,
2013-04-27 13:32:00,47.0,24.0,-100.00,WSW,250,16.0,27.0,40,-99.99,,,-99.99,,2013-04-27 19:32:00,
2013-04-27 13:52:00,47.0,24.0,-100.00,WSW,250,16.0,27.0,40,-99.99,,,-99.99,,2013-04-27 19:52:00,
2013-04-27 14:11:00,50.0,19.0,-100.00,SW,235,18.0,24.0,29,-99.99,,,0.00,,2013-04-27 20:11:00,
2013-04-27 14:21:00,50.0,19.0,-100.00,SW,235,18.0,24.0,29,-99.99,,,0.00,,2013-04-27 20:21:00,
2013-04-27 14:32:00,49.0,22.0,-100.00,SW,235,18.0,29.0,35,-99.99,,,-99.99,,2013-04-27 20:32:00,
2013-04-27 14:52:00,51.0,22.0,-100.00,WSW,245,20.0,25.0,31,-99.99,,,0.00,,2013-04-27 20:52:00,
2013-04-27 15:02:00,51.0,22.0,-100.00,WSW,245,20.0,25.0,31,-99.99,,,0.00,,2013-04-27 21:02:00,
2013-04-27 15:32:00,52.0,22.0,-100.00,SSW,205,15.0,19.0,30,-99.99,,,-99.99,,2013-04-27 21:32:00,
2013-04-27 15:53:00,52.0,22.0,-100.00,SSW,205,15.0,19.0,30,-99.99,,,-99.99,,2013-04-27 21:53:00,
2013-04-27 16:02:00,52.0,18.0,-100.00,SW,235,24.0,30.0,26,-99.99,,,0.00,,2013-04-27 22:02:00,
2013-04-27 16:12:00,52.0,21.0,-100.00,SW,230,22.0,26.0,30,-99.99,,,0.00,,2013-04-27 22:12:00,
2013-04-27 16:22:00,52.0,21.0,-100.00,SW,230,22.0,26.0,30,-99.99,,,0.00,,2013-04-27 22:22:00,
2013-04-27 16:32:00,52.0,19.0,-100.00,WSW,245,20.0,27.0,27,-99.99,,,0.00,,2013-04-27 22:32:00,
2013-04-27 16:52:00,52.0,18.0,-100.00,SW,235,24.0,30.0,26,-99.99,,,0.00,,2013-04-27 22:52:00,
2013-04-27 17:11:00,51.0,22.0,-100.00,WSW,245,21.0,34.0,31,-99.99,,,0.00,,2013-04-27 23:11:00,
2013-04-27 17:22:00,51.0,22.0,-100.00,WSW,245,21.0,34.0,31,-99.99,,,0.00,,2013-04-27 23:22:00,
2013-04-27 17:32:00,50.0,21.0,-100.00,SW,235,18.0,30.0,32,-99.99,,,-99.99,,2013-04-27 23:32:00,
2013-04-27 17:52:00,50.0,21.0,-100.00,WSW,245,20.0,32.0,32,-99.99,,,0.00,,2013-04-27 23:52:00,
2013-04-27 18:00:00,48.0,21.0,-100.00,WSW,255,14.0,23.0,34,-99.99,,,0.00,,2013-04-28 00:00:00,
2013-04-27 18:01:00,50.0,21.0,-100.00,WSW,245,20.0,32.0,32,-99.99,,,0.00,,2013-04-28 00:01:00,
2013-04-27 18:11:00,50.0,19.0,-100.00,WSW,250,24.0,35.0,29,-99.99,,,0.00,,2013-04-28 00:11:00,
2013-04-27 18:21:00,50.0,19.0,-100.00,WSW,250,24.0,35.0,29,-99.99,,,0.00,,2013-04-28 00:21:00,
2013-04-27 18:31:00,50.0,19.0,-100.00,WSW,250,24.0,35.0,29,-99.99,,,0.00,,2013-04-28 00:31:00,
2013-04-27 18:52:00,48.0,21.0,-100.00,WSW,255,14.0,23.0,34,-99.99,,,0.00,,2013-04-28 00:52:00,
2013-04-27 19:11:00,48.0,23.0,-100.00,WSW,250,14.0,20.0,37,-99.99,,,0.00,,2013-04-28 01:11:00,
2013-04-27 19:21:00,48.0,23.0,-100.00,WSW,250,14.0,20.0,37,-99.99,,,0.00,,2013-04-28 01:21:00,
2013-04-27 19:31:00,49.0,22.0,-100.00,WSW,250,20.0,26.0,34,-99.99,,,0.00,,2013-04-28 01:31:00,
2013-04-27 19:42:00,49.0,22.0,-100.00,WSW,250,20.0,26.0,34,-99.99,,,0.00,,2013-04-28 01:42:00,
2013-04-27 19:52:00,49.0,22.0,-100.00,WSW,250,21.0,24.0,35,-99.99,,,0.00,,2013-04-28 01:52:00,
2013-04-27 20:01:00,49.0,22.0,-100.00,WSW,250,21.0,24.0,35,-99.99,,,0.00,,2013-04-28 02:01:00,
2013-04-27 20:12:00,48.0,23.0,-100.00,West,275,16.0,23.0,37,-99.99,,,-99.99,,2013-04-28 02:12:00,
2013-04-27 20:21:00,48.0,23.0,-100.00,West,275,16.0,23.0,37,-99.99,,,-99.99,,2013-04-28 02:21:00,
2013-04-27 20:32:00,48.0,23.0,-100.00,WSW,250,22.0,29.0,38,-99.99,,,0.00,,2013-04-28 02:32:00,
2013-04-27 20:41:00,48.0,23.0,-100.00,WSW,250,22.0,29.0,38,-99.99,,,0.00,,2013-04-28 02:41:00,
2013-04-27 20:52:00,47.0,23.0,-100.00,WSW,250,20.0,24.0,39,-99.99,,,0.00,,2013-04-28 02:52:00,
2013-04-27 21:01:00,47.0,23.0,-100.00,WSW,250,20.0,24.0,39,-99.99,,,0.00,,2013-04-28 03:01:00,
2013-04-27 21:11:00,47.0,23.0,-100.00,WSW,250,19.0,28.0,38,-99.99,,,-99.99,,2013-04-28 03:11:00,
2013-04-27 21:21:00,47.0,23.0,-100.00,WSW,250,19.0,28.0,38,-99.99,,,-99.99,,2013-04-28 03:21:00,
2013-04-27 21:32:00,47.0,23.0,-100.00,WSW,245,24.0,27.0,39,-99.99,,,0.00,,2013-04-28 03:32:00,
2013-04-27 21:42:00,47.0,23.0,-100.00,WSW,245,24.0,27.0,39,-99.99,,,0.00,,2013-04-28 03:42:00,
2013-04-27 21:53:00,45.0,25.0,-100.00,WSW,250,16.0,29.0,44,-99.99,,,0.00,,2013-04-28 03:53:00,
2013-04-27 22:01:00,45.0,24.0,-100.00,West,260,15.0,22.0,43,-99.99,,,0.00,,2013-04-28 04:01:00,
2013-04-27 22:02:00,45.0,25.0,-100.00,WSW,250,16.0,29.0,44,-99.99,,,0.00,,2013-04-28 04:02:00,
2013-04-27 22:13:00,46.0,25.0,-100.00,SW,235,20.0,29.0,43,-99.99,,,0.00,,2013-04-28 04:13:00,
2013-04-27 22:22:00,46.0,25.0,-100.00,SW,235,20.0,29.0,43,-99.99,,,0.00,,2013-04-28 04:22:00,
2013-04-27 22:32:00,45.0,24.0,-100.00,West,260,15.0,22.0,43,-99.99,,,0.00,,2013-04-28 04:32:00,
2013-04-27 22:42:00,45.0,24.0,-100.00,West,260,15.0,22.0,43,-99.99,,,0.00,,2013-04-28 04:42:00,
2013-04-27 22:52:00,45.0,24.0,-100.00,West,260,15.0,22.0,43,-99.99,,,0.00,,2013-04-28 04:52:00,
2013-04-27 23:01:00,43.0,28.0,-100.00,SW,225,17.0,24.0,55,-99.99,,,0.00,,2013-04-28 05:01:00,
2013-04-27 23:12:00,44.0,27.0,-100.00,West,260,12.0,19.0,50,-99.99,,,0.00,,2013-04-28 05:12:00,
2013-04-27 23:22:00,44.0,27.0,-100.00,West,260,12.0,19.0,50,-99.99,,,0.00,,2013-04-28 05:22:00,
2013-04-27 23:31:00,43.0,28.0,-100.00,SW,235,22.0,27.0,55,-99.99,,,0.00,,2013-04-28 05:31:00,
2013-04-27 23:32:00,43.0,28.0,-100.00,SW,225,17.0,24.0,55,-99.99,,,0.00,,2013-04-28 05:32:00,
2013-04-27 23:42:00,43.0,28.0,-100.00,SW,225,17.0,24.0,55,-99.99,,,0.00,,2013-04-28 05:42:00,
2013-04-27 23:52:00,43.0,28.0,-100.00,SW,225,17.0,24.0,55,-99.99,,,0.00,,2013-04-28 05:52:00,